createdAt,value
2022-11-18T00:00:29.377Z,80.70
2022-11-18T00:01:30.367Z,77.80
2022-11-18T00:02:30.341Z,87.40
2022-11-18T00:03:30.236Z,101.80
2022-11-18T00:04:30.119Z,77.40
2022-11-18T00:06:39.286Z,81.00
2022-11-18T00:07:40.270Z,89.20
2022-11-18T00:08:40.180Z,92.10
2022-11-18T00:09:40.102Z,80.80
2022-11-18T00:10:40.021Z,78.70
2022-11-18T00:11:39.980Z,83.80
2022-11-18T00:12:39.918Z,80.90
2022-11-18T00:13:39.847Z,84.30
2022-11-18T00:14:39.787Z,71.10
2022-11-18T00:15:39.707Z,92.50
2022-11-18T00:16:39.676Z,81.80
2022-11-18T00:17:39.617Z,75.00
2022-11-18T00:18:39.529Z,75.10
2022-11-18T00:19:39.487Z,77.70
2022-11-18T00:20:39.393Z,74.00
2022-11-18T00:21:39.379Z,80.20
2022-11-18T00:22:39.289Z,68.50
2022-11-18T00:25:57.630Z,66.50
2022-11-18T00:26:58.536Z,82.30
2022-11-18T00:27:58.521Z,82.10
2022-11-18T00:28:58.388Z,72.90
2022-11-18T00:29:58.370Z,87.20
2022-11-18T00:30:58.337Z,76.00
2022-11-18T00:31:58.229Z,86.60
2022-11-18T00:32:58.203Z,88.70
2022-11-18T00:33:58.134Z,80.10
2022-11-18T00:34:58.090Z,82.60
2022-11-18T00:35:57.940Z,78.20
2022-11-18T00:36:57.972Z,71.40
2022-11-18T00:37:57.858Z,77.80
2022-11-18T00:38:57.831Z,76.50
2022-11-18T00:39:57.719Z,77.40
2022-11-18T00:40:57.676Z,72.10
2022-11-18T00:41:57.600Z,71.00
2022-11-18T00:42:57.557Z,68.70
2022-11-18T00:43:57.458Z,75.20
2022-11-18T00:44:57.390Z,70.50
2022-11-18T00:45:57.471Z,80.70
2022-11-18T00:46:57.295Z,82.20
2022-11-18T00:47:57.173Z,75.70
2022-11-18T00:48:58.060Z,78.80
2022-11-18T00:49:57.083Z,90.70
2022-11-18T00:50:57.005Z,86.70
2022-11-18T00:51:56.919Z,88.50
2022-11-18T00:52:56.841Z,75.90
2022-11-18T00:53:56.854Z,86.10
2022-11-18T00:54:56.806Z,77.80
2022-11-18T00:55:56.733Z,81.20
2022-11-18T00:56:56.645Z,77.80
2022-11-18T00:57:56.553Z,70.20
2022-11-18T00:58:56.515Z,65.30
2022-11-18T00:59:56.462Z,79.80
2022-11-18T01:00:56.461Z,86.40
2022-11-18T01:01:56.304Z,81.30
2022-11-18T01:02:56.265Z,73.20
2022-11-18T01:03:56.174Z,76.00
2022-11-18T01:04:56.144Z,87.70
2022-11-18T01:05:56.073Z,85.50
2022-11-18T01:06:56.061Z,88.80
2022-11-18T01:07:55.892Z,96.30
2022-11-18T01:08:55.928Z,81.60
2022-11-18T01:09:55.824Z,69.60
2022-11-18T01:10:55.745Z,92.80
2022-11-18T01:11:55.627Z,76.70
2022-11-18T01:12:55.565Z,72.90
2022-11-18T01:13:55.478Z,78.60
2022-11-18T01:14:55.531Z,70.10
2022-11-18T01:15:55.443Z,70.10
2022-11-18T01:16:55.372Z,63.90
2022-11-18T01:17:55.311Z,66.90
2022-11-18T01:19:16.568Z,66.50
2022-11-18T01:19:55.192Z,60.00
2022-11-18T01:20:55.062Z,72.30
2022-11-18T01:21:55.051Z,80.50
2022-11-18T01:22:55.013Z,77.50
2022-11-18T01:23:54.950Z,75.30
2022-11-18T01:24:54.879Z,87.50
2022-11-18T01:25:54.791Z,90.00
2022-11-18T01:26:54.709Z,95.10
2022-11-18T01:27:54.672Z,92.20
2022-11-18T01:28:54.572Z,86.90
2022-11-18T01:29:54.541Z,90.50
2022-11-18T01:30:54.443Z,91.10
2022-11-18T01:32:23.984Z,91.60
2022-11-18T01:32:54.363Z,85.40
2022-11-18T01:33:54.307Z,83.70
2022-11-18T01:34:54.193Z,83.60
2022-11-18T01:35:54.136Z,91.20
2022-11-18T01:36:54.250Z,82.20
2022-11-18T01:37:54.041Z,87.80
2022-11-18T01:38:53.973Z,84.70
2022-11-18T01:39:53.871Z,82.80
2022-11-18T01:40:53.837Z,94.30
2022-11-18T01:41:53.805Z,86.80
2022-11-18T01:42:53.740Z,91.60
2022-11-18T01:43:53.643Z,93.00
2022-11-18T01:44:53.557Z,89.40
2022-11-18T01:45:53.534Z,94.30
2022-11-18T01:46:53.435Z,103.60
2022-11-18T01:47:53.425Z,92.90
2022-11-18T01:48:53.311Z,92.30
2022-11-18T01:49:53.228Z,79.00
2022-11-18T01:50:53.189Z,86.90
2022-11-18T01:51:53.135Z,64.80
2022-11-18T01:52:53.036Z,77.10
2022-11-18T01:53:52.996Z,79.00
2022-11-18T01:54:52.929Z,91.20
2022-11-18T01:55:52.846Z,92.60
2022-11-18T01:56:52.784Z,77.90
2022-11-18T01:57:52.728Z,95.60
2022-11-18T01:58:52.677Z,89.30
2022-11-18T01:59:52.603Z,86.90
2022-11-18T02:00:52.678Z,84.50
2022-11-18T02:01:58.250Z,82.80
2022-11-18T02:02:52.367Z,85.40
2022-11-18T02:03:52.278Z,90.10
2022-11-18T02:04:52.244Z,92.90
2022-11-18T02:05:52.195Z,96.00
2022-11-18T02:06:52.195Z,88.80
2022-11-18T02:07:52.077Z,103.30
2022-11-18T02:08:52.044Z,88.20
2022-11-18T02:09:51.949Z,94.20
2022-11-18T02:10:51.901Z,89.60
2022-11-18T02:11:51.916Z,94.80
2022-11-18T02:13:21.650Z,93.10
2022-11-18T02:13:51.672Z,104.90
2022-11-18T02:14:51.633Z,98.20
2022-11-18T02:15:51.581Z,103.60
2022-11-18T02:16:51.504Z,92.30
2022-11-18T02:17:51.472Z,114.00
2022-11-18T02:18:51.363Z,103.10
2022-11-18T02:19:51.303Z,98.00
2022-11-18T02:20:51.250Z,107.90
2022-11-18T02:21:51.180Z,105.20
2022-11-18T02:22:51.069Z,111.70
2022-11-18T02:23:51.031Z,116.60
2022-11-18T02:24:51.030Z,118.00
2022-11-18T02:25:50.980Z,108.70
2022-11-18T02:26:50.889Z,114.70
2022-11-18T02:27:50.771Z,108.10
2022-11-18T02:28:50.699Z,113.20
2022-11-18T02:29:50.680Z,106.50
2022-11-18T02:31:13.970Z,108.30
2022-11-18T02:31:50.548Z,120.90
2022-11-18T02:32:50.446Z,109.60
2022-11-18T02:33:50.429Z,110.80
2022-11-18T02:34:50.278Z,130.70
2022-11-18T02:35:50.248Z,116.20
2022-11-18T02:36:50.199Z,123.40
2022-11-18T02:37:50.129Z,124.50
2022-11-18T02:38:50.063Z,136.90
2022-11-18T02:39:50.086Z,120.60
2022-11-18T02:40:49.989Z,141.00
2022-11-18T02:41:49.938Z,129.10
2022-11-18T02:42:49.887Z,125.30
2022-11-18T02:43:49.769Z,134.60
2022-11-18T02:44:49.732Z,138.70
2022-11-18T02:45:49.685Z,133.10
2022-11-18T02:46:49.600Z,140.00
2022-11-18T02:47:49.553Z,125.60
2022-11-18T02:51:08.918Z,155.20
2022-11-18T02:52:10.349Z,140.70
2022-11-18T02:53:09.786Z,143.50
2022-11-18T02:54:09.717Z,149.00
2022-11-18T02:55:09.656Z,135.60
2022-11-18T02:56:09.589Z,142.50
2022-11-18T02:57:09.529Z,151.50
2022-11-18T02:58:09.449Z,134.80
2022-11-18T02:59:09.435Z,143.70
2022-11-18T03:00:09.376Z,122.10
2022-11-18T03:01:09.373Z,140.80
2022-11-18T03:02:09.208Z,145.20
2022-11-18T03:03:09.107Z,144.30
2022-11-18T03:04:09.095Z,128.50
2022-11-18T03:05:09.056Z,135.20
2022-11-18T03:06:08.946Z,124.00
2022-11-18T03:07:08.897Z,137.20
2022-11-18T03:08:08.913Z,133.00
2022-11-18T03:09:08.805Z,141.30
2022-11-18T03:10:08.735Z,142.90
2022-11-18T03:11:08.656Z,134.00
2022-11-18T03:12:08.604Z,131.00
2022-11-18T03:13:08.547Z,142.20
2022-11-18T03:14:08.472Z,132.00
2022-11-18T03:15:08.421Z,145.60
2022-11-18T03:16:08.338Z,132.70
2022-11-18T03:17:08.265Z,126.70
2022-11-18T03:18:08.191Z,125.80
2022-11-18T03:19:08.160Z,128.30
2022-11-18T03:20:08.074Z,144.30
2022-11-18T03:21:08.011Z,136.00
2022-11-18T03:22:07.921Z,135.60
2022-11-18T03:23:07.845Z,137.90
2022-11-18T03:24:07.843Z,124.00
2022-11-18T03:25:07.737Z,139.00
2022-11-18T03:26:37.189Z,141.40
2022-11-18T03:27:07.610Z,127.30
2022-11-18T03:28:07.524Z,140.00
2022-11-18T03:29:07.452Z,141.00
2022-11-18T03:30:07.411Z,146.40
2022-11-18T03:31:07.393Z,149.30
2022-11-18T03:32:07.342Z,148.10
2022-11-18T03:33:07.239Z,148.10
2022-11-18T03:34:07.160Z,155.40
2022-11-18T03:35:07.099Z,159.70
2022-11-18T03:36:07.048Z,151.70
2022-11-18T03:37:10.423Z,160.90
2022-11-18T03:38:06.970Z,157.70
2022-11-18T03:39:06.858Z,157.20
2022-11-18T03:40:06.811Z,163.80
2022-11-18T03:41:06.749Z,178.20
2022-11-18T03:42:06.689Z,163.70
2022-11-18T03:43:06.589Z,172.90
2022-11-18T03:44:08.952Z,165.50
2022-11-18T03:45:06.438Z,154.40
2022-11-18T03:46:06.373Z,154.20
2022-11-18T03:47:06.369Z,154.90
2022-11-18T03:48:06.266Z,175.30
2022-11-18T03:49:06.198Z,167.00
2022-11-18T03:50:06.129Z,151.70
2022-11-18T03:51:06.089Z,153.70
2022-11-18T03:52:06.007Z,152.00
2022-11-18T03:53:05.946Z,161.60
2022-11-18T03:54:05.883Z,159.00
2022-11-18T03:55:05.801Z,147.80
2022-11-18T03:56:05.806Z,151.30
2022-11-18T03:57:05.679Z,135.60
2022-11-18T03:58:05.598Z,141.60
2022-11-18T03:59:05.536Z,133.70
2022-11-18T04:00:05.523Z,139.80
2022-11-18T04:01:05.408Z,151.60
2022-11-18T04:02:26.377Z,146.50
2022-11-18T04:03:05.279Z,136.50
2022-11-18T04:04:05.214Z,141.10
2022-11-18T04:05:05.147Z,138.60
2022-11-18T04:06:05.093Z,137.80
2022-11-18T04:07:05.061Z,134.30
2022-11-18T04:08:05.043Z,148.80
2022-11-18T04:09:04.908Z,146.50
2022-11-18T04:10:04.882Z,156.50
2022-11-18T04:11:04.802Z,145.80
2022-11-18T04:12:04.752Z,142.70
2022-11-18T04:13:06.525Z,148.70
2022-11-18T04:14:04.920Z,148.10
2022-11-18T04:15:04.651Z,149.40
2022-11-18T04:16:04.511Z,143.30
2022-11-18T04:17:04.452Z,153.70
2022-11-18T04:18:04.344Z,148.30
2022-11-18T04:19:06.315Z,148.10
2022-11-18T04:20:25.223Z,146.20
2022-11-18T04:21:04.133Z,158.00
2022-11-18T04:22:04.102Z,159.40
2022-11-18T04:23:04.025Z,158.00
2022-11-18T04:24:04.000Z,168.70
2022-11-18T04:25:03.890Z,182.80
2022-11-18T04:26:03.876Z,159.70
2022-11-18T04:27:03.772Z,167.80
2022-11-18T04:28:03.721Z,164.10
2022-11-18T04:29:03.637Z,175.30
2022-11-18T04:30:03.621Z,173.00
2022-11-18T04:31:03.522Z,158.40
2022-11-18T04:32:03.482Z,165.20
2022-11-18T04:33:03.384Z,163.80
2022-11-18T04:34:03.359Z,165.90
2022-11-18T04:35:03.274Z,162.40
2022-11-18T04:36:03.201Z,166.70
2022-11-18T04:37:03.178Z,164.10
2022-11-18T04:38:05.064Z,162.30
2022-11-18T04:39:03.013Z,161.00
2022-11-18T04:40:02.957Z,170.10
2022-11-18T04:41:02.877Z,175.40
2022-11-18T04:42:02.758Z,163.00
2022-11-18T04:43:02.728Z,168.50
2022-11-18T04:44:02.700Z,170.60
2022-11-18T04:45:02.586Z,166.40
2022-11-18T04:46:02.536Z,182.10
2022-11-18T04:47:02.468Z,185.00
2022-11-18T04:48:03.914Z,170.30
2022-11-18T04:49:02.379Z,168.60
2022-11-18T04:50:02.322Z,150.70
2022-11-18T04:51:02.228Z,174.30
2022-11-18T04:52:02.148Z,179.40
2022-11-18T04:53:02.096Z,165.70
2022-11-18T04:54:02.008Z,166.70
2022-11-18T04:55:01.952Z,186.00
2022-11-18T04:56:01.916Z,182.40
2022-11-18T04:57:01.838Z,187.70
2022-11-18T04:58:01.774Z,183.80
2022-11-18T04:59:01.724Z,193.40
2022-11-18T05:00:01.656Z,169.80
2022-11-18T05:01:01.659Z,162.30
2022-11-18T05:02:01.513Z,161.70
2022-11-18T05:03:01.452Z,171.90
2022-11-18T05:04:01.435Z,161.70
2022-11-18T05:05:01.367Z,174.00
2022-11-18T05:06:01.243Z,169.30
2022-11-18T05:07:01.295Z,169.50
2022-11-18T05:08:01.501Z,156.20
2022-11-18T05:09:01.112Z,165.90
2022-11-18T05:10:01.033Z,169.40
2022-11-18T05:11:00.907Z,164.90
2022-11-18T05:12:00.862Z,155.00
2022-11-18T05:13:00.833Z,153.80
2022-11-18T05:14:04.791Z,164.50
2022-11-18T05:15:00.707Z,170.10
2022-11-18T05:16:00.661Z,155.70
2022-11-18T05:17:00.594Z,165.80
2022-11-18T05:18:00.541Z,168.10
2022-11-18T05:19:00.504Z,171.00
2022-11-18T05:20:00.404Z,172.10
2022-11-18T05:21:00.323Z,159.00
2022-11-18T05:22:00.239Z,169.60
2022-11-18T05:23:00.186Z,143.90
2022-11-18T05:24:00.092Z,161.10
2022-11-18T05:25:00.077Z,158.20
2022-11-18T05:26:02.587Z,155.60
2022-11-18T05:26:59.964Z,155.60
2022-11-18T05:27:59.858Z,153.10
2022-11-18T05:28:59.772Z,154.50
2022-11-18T05:29:59.720Z,150.70
2022-11-18T05:30:59.720Z,150.30
2022-11-18T05:32:20.575Z,151.20
2022-11-18T05:32:59.538Z,159.10
2022-11-18T05:33:59.512Z,163.60
2022-11-18T05:34:59.424Z,146.70
2022-11-18T05:35:59.347Z,148.10
2022-11-18T05:36:59.258Z,144.60
2022-11-18T05:37:59.216Z,139.30
2022-11-18T05:38:59.279Z,144.90
2022-11-18T05:39:59.087Z,146.10
2022-11-18T05:40:58.999Z,137.70
2022-11-18T05:41:58.943Z,142.20
2022-11-18T05:42:58.925Z,146.00
2022-11-18T05:43:58.854Z,149.30
2022-11-18T05:44:59.196Z,148.10
2022-11-18T05:45:58.705Z,147.00
2022-11-18T05:46:58.665Z,153.30
2022-11-18T05:47:58.556Z,134.20
2022-11-18T05:48:58.560Z,156.30
2022-11-18T05:49:58.495Z,148.60
2022-11-18T05:50:58.416Z,155.10
2022-11-18T05:51:58.325Z,153.80
2022-11-18T05:52:58.279Z,159.30
2022-11-18T05:53:58.176Z,156.70
2022-11-18T05:54:58.179Z,151.10
2022-11-18T05:55:58.072Z,152.60
2022-11-18T05:56:58.004Z,149.40
2022-11-18T05:57:57.921Z,155.20
2022-11-18T05:58:57.895Z,158.40
2022-11-18T05:59:57.805Z,155.60
2022-11-18T06:00:57.773Z,152.30
2022-11-18T06:01:57.734Z,153.70
2022-11-18T06:02:57.688Z,154.50
2022-11-18T06:03:57.563Z,153.20
2022-11-18T06:04:57.493Z,152.00
2022-11-18T06:05:57.407Z,162.20
2022-11-18T06:06:57.447Z,154.00
2022-11-18T06:08:01.308Z,157.00
2022-11-18T06:08:57.214Z,142.10
2022-11-18T06:09:59.771Z,158.70
2022-11-18T06:10:57.151Z,151.20
2022-11-18T06:11:57.080Z,144.20
2022-11-18T06:12:56.953Z,141.00
2022-11-18T06:13:56.896Z,158.50
2022-11-18T06:14:56.833Z,149.70
2022-11-18T06:15:56.817Z,153.00
2022-11-18T06:16:56.701Z,144.00
2022-11-18T06:17:56.600Z,130.20
2022-11-18T06:18:56.635Z,151.00
2022-11-18T06:19:56.496Z,147.80
2022-11-18T06:20:57.291Z,147.40
2022-11-18T06:21:56.320Z,156.40
2022-11-18T06:22:56.815Z,141.80
2022-11-18T06:23:56.243Z,143.20
2022-11-18T06:24:56.126Z,136.00
2022-11-18T06:25:56.227Z,137.50
2022-11-18T06:26:56.039Z,132.90
2022-11-18T06:27:55.998Z,129.70
2022-11-18T06:28:55.899Z,120.60
2022-11-18T06:29:55.848Z,122.40
2022-11-18T06:30:55.797Z,109.70
2022-11-18T06:31:55.742Z,117.90
2022-11-18T06:32:55.639Z,111.30
2022-11-18T06:33:55.569Z,112.30
2022-11-18T06:34:55.504Z,108.90
2022-11-18T06:35:55.429Z,113.20
2022-11-18T06:36:55.397Z,123.60
2022-11-18T06:37:55.332Z,108.60
2022-11-18T06:38:55.238Z,114.60
2022-11-18T06:39:55.219Z,118.80
2022-11-18T06:40:55.111Z,127.90
2022-11-18T06:41:56.048Z,128.50
2022-11-18T06:42:56.036Z,120.00
2022-11-18T06:43:57.303Z,121.50
2022-11-18T06:44:55.908Z,129.30
2022-11-18T06:45:56.300Z,132.80
2022-11-18T06:46:54.745Z,125.20
2022-11-18T06:47:54.824Z,136.20
2022-11-18T06:48:54.648Z,125.10
2022-11-18T06:49:55.549Z,124.70
2022-11-18T06:50:55.514Z,131.60
2022-11-18T06:51:56.728Z,130.80
2022-11-18T06:52:55.803Z,139.30
2022-11-18T06:53:55.292Z,141.80
2022-11-18T06:54:55.796Z,134.70
2022-11-18T06:55:54.181Z,143.20
2022-11-18T06:56:54.112Z,130.40
2022-11-18T06:57:54.068Z,130.90
2022-11-18T06:58:54.806Z,133.70
2022-11-18T06:59:59.147Z,126.90
2022-11-18T07:00:53.972Z,132.00
2022-11-18T07:01:53.843Z,125.50
2022-11-18T07:02:53.729Z,131.70
2022-11-18T07:03:53.665Z,136.50
2022-11-18T07:04:53.575Z,136.80
2022-11-18T07:05:53.539Z,137.50
2022-11-18T07:06:53.512Z,138.20
2022-11-18T07:07:53.486Z,129.00
2022-11-18T07:08:53.314Z,118.30
2022-11-18T07:09:53.272Z,123.70
2022-11-18T07:10:53.253Z,139.30
2022-11-18T07:11:53.136Z,152.20
2022-11-18T07:12:53.120Z,158.50
2022-11-18T07:13:53.029Z,168.50
2022-11-18T07:14:52.958Z,165.10
2022-11-18T07:15:52.851Z,166.10
2022-11-18T07:16:52.817Z,168.60
2022-11-18T07:17:52.742Z,173.00
2022-11-18T07:18:52.684Z,163.30
2022-11-18T07:19:53.889Z,163.40
2022-11-18T07:20:52.611Z,160.20
2022-11-18T07:21:52.503Z,176.50
2022-11-18T07:22:52.465Z,178.70
2022-11-18T07:23:52.395Z,166.10
2022-11-18T07:24:52.291Z,161.20
2022-11-18T07:25:52.288Z,167.30
2022-11-18T07:26:52.195Z,168.30
2022-11-18T07:27:52.130Z,172.90
2022-11-18T07:28:52.019Z,165.90
2022-11-18T07:29:51.986Z,173.90
2022-11-18T07:30:51.960Z,160.00
2022-11-18T07:31:51.902Z,165.20
2022-11-18T07:32:51.800Z,159.60
2022-11-18T07:33:51.767Z,147.50
2022-11-18T07:34:51.717Z,160.40
2022-11-18T07:35:51.601Z,125.50
2022-11-18T07:36:51.559Z,133.40
2022-11-18T07:37:52.757Z,140.30
2022-11-18T07:38:51.435Z,151.30
2022-11-18T07:39:54.225Z,159.60
2022-11-18T07:40:52.227Z,152.30
2022-11-18T07:41:51.248Z,145.10
2022-11-18T07:42:51.154Z,148.60
2022-11-18T07:43:52.326Z,147.00
2022-11-18T07:44:51.035Z,146.60
2022-11-18T07:45:50.978Z,123.50
2022-11-18T07:46:50.914Z,137.60
2022-11-18T07:47:50.886Z,136.30
2022-11-18T07:48:50.789Z,132.60
2022-11-18T07:49:50.699Z,129.30
2022-11-18T07:50:50.638Z,146.50
2022-11-18T07:51:50.633Z,138.90
2022-11-18T07:52:50.530Z,146.10
2022-11-18T07:53:50.443Z,135.90
2022-11-18T07:54:50.410Z,149.20
2022-11-18T07:58:19.533Z,128.20
2022-11-18T07:59:20.688Z,135.40
2022-11-18T08:00:22.668Z,133.40
2022-11-18T08:01:20.231Z,139.20
2022-11-18T08:02:20.102Z,157.40
2022-11-18T08:03:20.706Z,157.00
2022-11-18T08:04:22.698Z,152.40
2022-11-18T08:05:20.532Z,168.90
2022-11-18T08:06:19.791Z,157.50
2022-11-18T08:07:19.886Z,174.30
2022-11-18T08:08:19.779Z,169.40
2022-11-18T08:09:19.949Z,140.80
2022-11-18T08:10:19.590Z,164.70
2022-11-18T08:11:22.627Z,167.50
2022-11-18T08:12:20.499Z,173.30
2022-11-18T08:13:19.399Z,161.90
2022-11-18T08:14:20.063Z,168.00
2022-11-18T08:15:20.569Z,191.90
2022-11-18T08:16:20.068Z,181.30
2022-11-18T08:17:22.432Z,193.10
2022-11-18T08:18:21.433Z,175.60
2022-11-18T08:19:21.013Z,193.60
2022-11-18T08:20:20.835Z,175.50
2022-11-18T08:21:18.876Z,184.20
2022-11-18T08:22:19.588Z,196.30
2022-11-18T08:23:19.608Z,211.70
2022-11-18T08:24:18.683Z,192.10
2022-11-18T08:25:18.722Z,211.80
2022-11-18T08:26:18.553Z,206.60
2022-11-18T08:27:18.821Z,197.00
2022-11-18T08:28:18.980Z,224.60
2022-11-18T08:29:24.509Z,230.60
2022-11-18T08:30:18.295Z,205.60
2022-11-18T08:31:18.213Z,226.40
2022-11-18T08:32:18.210Z,193.70
2022-11-18T08:33:20.394Z,182.50
2022-11-18T08:34:18.012Z,208.60
2022-11-18T08:35:17.951Z,202.80
2022-11-18T08:36:17.875Z,205.90
2022-11-18T08:37:18.501Z,199.70
2022-11-18T08:38:17.722Z,216.20
2022-11-18T08:39:21.433Z,205.00
2022-11-18T08:40:19.198Z,211.30
2022-11-18T08:41:26.044Z,191.10
2022-11-18T08:42:23.289Z,196.60
2022-11-18T08:43:22.293Z,174.40
2022-11-18T08:44:19.483Z,170.50
2022-11-18T08:48:01.553Z,184.50
2022-11-18T08:48:06.906Z,200.70
2022-11-18T08:49:07.608Z,209.90
2022-11-18T08:50:08.102Z,186.00
2022-11-18T08:51:08.540Z,193.60
2022-11-18T08:52:06.343Z,199.60
2022-11-18T08:53:06.261Z,203.90
2022-11-18T08:54:06.229Z,217.60
2022-11-18T08:55:06.117Z,183.10
2022-11-18T08:56:06.096Z,175.20
2022-11-18T08:57:06.009Z,165.30
2022-11-18T08:58:05.914Z,165.20
2022-11-18T08:59:05.871Z,160.30
2022-11-18T09:00:05.866Z,176.20
2022-11-18T09:01:05.790Z,156.10
2022-11-18T09:02:05.752Z,143.30
2022-11-18T09:03:05.659Z,142.50
2022-11-18T09:04:05.547Z,155.40
2022-11-18T09:05:05.527Z,163.60
2022-11-18T09:06:05.399Z,173.60
2022-11-18T09:07:05.398Z,174.10
2022-11-18T09:08:05.308Z,176.90
2022-11-18T09:09:09.257Z,190.10
2022-11-18T09:10:05.186Z,182.70
2022-11-18T09:11:05.078Z,185.70
2022-11-18T09:12:05.014Z,162.90
2022-11-18T09:13:32.751Z,161.20
2022-11-18T09:15:13.780Z,168.20
2022-11-18T09:16:04.767Z,148.40
2022-11-18T09:17:04.694Z,163.40
2022-11-18T09:18:04.635Z,174.40
2022-11-18T09:19:24.812Z,146.90
2022-11-18T09:20:04.515Z,152.70
2022-11-18T09:21:04.554Z,148.10
2022-11-18T09:22:04.432Z,157.20
2022-11-18T09:23:04.334Z,175.80
2022-11-18T09:24:04.292Z,180.70
2022-11-18T09:25:04.247Z,169.20
2022-11-18T09:26:04.130Z,164.80
2022-11-18T09:27:34.203Z,154.40
2022-11-18T09:28:03.985Z,157.00
2022-11-18T09:29:04.384Z,154.30
2022-11-18T09:30:05.042Z,161.10
2022-11-18T09:31:03.833Z,176.70
2022-11-18T09:32:03.783Z,177.70
2022-11-18T09:33:03.714Z,187.10
2022-11-18T09:34:03.683Z,181.50
2022-11-18T09:35:03.564Z,160.50
2022-11-18T09:36:03.500Z,168.50
2022-11-18T09:37:03.464Z,171.70
2022-11-18T09:38:03.384Z,164.80
2022-11-18T09:39:03.323Z,154.50
2022-11-18T09:40:03.213Z,143.70
2022-11-18T09:41:03.198Z,158.50
2022-11-18T09:42:03.082Z,159.10
2022-11-18T09:43:03.066Z,141.80
2022-11-18T09:44:02.943Z,148.50
2022-11-18T09:45:08.555Z,137.40
2022-11-18T09:46:02.874Z,134.00
2022-11-18T09:47:02.759Z,129.00
2022-11-18T09:48:02.759Z,134.50
2022-11-18T09:49:02.669Z,132.00
2022-11-18T09:50:20.446Z,123.10
2022-11-18T09:51:02.626Z,110.90
2022-11-18T09:52:02.471Z,126.60
2022-11-18T09:53:02.407Z,111.90
2022-11-18T09:54:02.722Z,130.00
2022-11-18T09:55:02.330Z,109.60
2022-11-18T09:56:02.290Z,120.10
2022-11-18T09:57:04.105Z,142.70
2022-11-18T09:58:02.093Z,132.60
2022-11-18T09:59:02.030Z,149.80
2022-11-18T10:00:01.971Z,130.70
2022-11-18T10:01:01.932Z,135.30
2022-11-18T10:02:01.840Z,129.20
2022-11-18T10:03:01.797Z,127.70
2022-11-18T10:04:01.856Z,119.20
2022-11-18T10:05:01.615Z,116.30
2022-11-18T10:06:01.597Z,124.20
2022-11-18T10:07:01.549Z,112.90
2022-11-18T10:08:02.539Z,106.10
2022-11-18T10:09:02.520Z,103.60
2022-11-18T10:10:01.337Z,111.20
2022-11-18T10:11:02.106Z,110.50
2022-11-18T10:12:01.216Z,117.70
2022-11-18T10:13:01.282Z,124.40
2022-11-18T10:14:01.094Z,107.70
2022-11-18T10:15:30.806Z,100.10
2022-11-18T10:16:01.005Z,102.00
2022-11-18T10:17:00.866Z,99.00
2022-11-18T10:18:01.491Z,85.00
2022-11-18T10:19:01.372Z,99.00
2022-11-18T10:20:00.708Z,103.60
2022-11-18T10:21:22.579Z,84.20
2022-11-18T10:22:02.172Z,82.50
2022-11-18T10:23:00.607Z,85.80
2022-11-18T10:24:00.415Z,91.50
2022-11-18T10:25:00.337Z,79.80
2022-11-18T10:26:00.314Z,77.40
2022-11-18T10:27:00.215Z,87.70
2022-11-18T10:28:00.194Z,95.20
2022-11-18T10:29:00.189Z,90.10
2022-11-18T10:30:00.022Z,93.10
2022-11-18T10:31:02.297Z,82.30
2022-11-18T10:32:04.781Z,87.10
2022-11-18T10:33:26.999Z,85.20
2022-11-18T10:34:22.429Z,94.30
2022-11-18T10:34:59.730Z,92.80
2022-11-18T10:36:11.662Z,91.70
2022-11-18T10:36:59.617Z,84.00
2022-11-18T10:38:08.241Z,82.40
2022-11-18T10:39:03.443Z,68.70
2022-11-18T10:39:59.449Z,76.10
2022-11-18T10:40:59.292Z,68.20
2022-11-18T10:41:59.275Z,69.10
2022-11-18T10:42:59.221Z,68.40
2022-11-18T10:44:00.461Z,65.40
2022-11-18T10:44:59.052Z,64.40
2022-11-18T10:45:59.012Z,63.30
2022-11-18T10:46:58.912Z,62.70
2022-11-18T10:47:58.881Z,60.70
2022-11-18T10:48:59.588Z,61.80
2022-11-18T10:49:59.475Z,64.40
2022-11-18T10:50:58.681Z,70.70
2022-11-18T10:51:58.669Z,61.30
2022-11-18T10:52:58.543Z,61.50
2022-11-18T10:53:58.980Z,55.80
2022-11-18T10:54:58.459Z,62.10
2022-11-18T10:55:58.330Z,60.70
2022-11-18T10:56:58.814Z,69.10
2022-11-18T10:57:58.263Z,59.90
2022-11-18T10:58:58.167Z,62.10
2022-11-18T10:59:58.175Z,57.30
2022-11-18T11:00:58.090Z,56.90
2022-11-18T11:01:58.068Z,56.20
2022-11-18T11:02:57.917Z,53.80
2022-11-18T11:03:57.847Z,48.70
2022-11-18T11:04:57.821Z,53.20
2022-11-18T11:05:57.710Z,47.80
2022-11-18T11:06:57.648Z,51.50
2022-11-18T11:08:21.199Z,57.00
2022-11-18T11:08:57.537Z,48.20
2022-11-18T11:09:57.496Z,54.60
2022-11-18T11:10:57.392Z,53.40
2022-11-18T11:11:57.315Z,45.90
2022-11-18T11:12:57.270Z,57.10
2022-11-18T11:13:57.707Z,51.10
2022-11-18T11:14:57.990Z,52.70
2022-11-18T11:15:57.150Z,55.00
2022-11-18T11:16:57.132Z,47.20
2022-11-18T11:17:56.989Z,58.30
2022-11-18T11:18:56.927Z,57.00
2022-11-18T11:19:56.795Z,49.60
2022-11-18T11:20:56.771Z,57.20
2022-11-18T11:21:56.692Z,48.90
2022-11-18T11:22:56.590Z,67.90
2022-11-18T11:23:56.560Z,46.80
2022-11-18T11:24:56.484Z,48.70
2022-11-18T11:28:56.250Z,47.40
2022-11-18T11:29:56.965Z,42.60
2022-11-18T11:30:56.112Z,56.30
2022-11-18T11:31:56.082Z,57.50
2022-11-18T11:34:34.910Z,61.90
2022-11-18T11:35:35.827Z,58.90
2022-11-18T11:36:35.719Z,50.10
2022-11-18T11:37:35.678Z,53.60
2022-11-18T11:38:35.609Z,60.10
2022-11-18T11:39:36.582Z,55.30
2022-11-18T11:40:36.425Z,39.60
2022-11-18T11:41:38.748Z,39.20
2022-11-18T11:42:35.323Z,45.70
2022-11-18T11:43:38.927Z,57.60
2022-11-18T11:44:36.097Z,36.70
2022-11-18T11:45:37.075Z,41.30
2022-11-18T11:46:37.410Z,39.10
2022-11-18T11:47:36.997Z,36.40
2022-11-18T11:48:35.888Z,39.60
2022-11-18T11:49:34.902Z,42.40
2022-11-18T11:51:03.495Z,36.50
2022-11-18T11:51:34.930Z,46.60
2022-11-18T11:52:35.847Z,35.30
2022-11-18T11:53:34.659Z,35.20
2022-11-18T11:54:34.578Z,43.50
2022-11-18T11:55:35.596Z,40.00
2022-11-18T11:56:36.582Z,36.40
2022-11-18T11:57:34.339Z,37.80
2022-11-18T11:58:34.324Z,42.00
2022-11-18T11:59:34.266Z,30.60
2022-11-18T12:00:34.200Z,43.70
2022-11-18T12:01:34.132Z,37.30
2022-11-18T12:02:34.153Z,46.80
2022-11-18T12:03:33.969Z,42.00
2022-11-18T12:04:36.866Z,36.50
2022-11-18T12:05:35.576Z,42.20
2022-11-18T12:06:34.868Z,37.60
2022-11-18T12:07:36.879Z,49.50
2022-11-18T12:08:36.137Z,49.00
2022-11-18T12:09:33.673Z,54.70
2022-11-18T12:10:35.335Z,43.60
2022-11-18T12:11:33.437Z,38.20
2022-11-18T12:12:33.403Z,41.50
2022-11-18T12:13:33.346Z,42.20
2022-11-18T12:14:38.549Z,44.70
2022-11-18T12:15:33.244Z,52.30
2022-11-18T12:16:33.172Z,39.00
2022-11-18T12:17:33.141Z,49.40
2022-11-18T12:18:33.048Z,35.60
2022-11-18T12:19:32.967Z,52.20
2022-11-18T12:20:32.960Z,48.50
2022-11-18T12:21:35.136Z,55.50
2022-11-18T12:22:32.788Z,52.70
2022-11-18T12:23:32.769Z,52.10
2022-11-18T12:24:32.630Z,58.90
2022-11-18T12:25:33.352Z,44.30
2022-11-18T12:26:32.524Z,46.10
2022-11-18T12:27:32.501Z,50.80
2022-11-18T12:28:32.366Z,47.50
2022-11-18T12:29:32.336Z,45.20
2022-11-18T12:30:32.238Z,49.50
2022-11-18T12:31:32.207Z,51.80
2022-11-18T12:32:32.138Z,49.80
2022-11-18T12:33:32.120Z,47.50
2022-11-18T12:34:31.972Z,52.90
2022-11-18T12:35:31.963Z,53.60
2022-11-18T12:36:31.900Z,52.60
2022-11-18T12:37:31.855Z,37.10
2022-11-18T12:38:31.957Z,36.40
2022-11-18T12:39:31.694Z,57.10
2022-11-18T12:40:31.664Z,54.50
2022-11-18T12:41:31.557Z,51.90
2022-11-18T12:42:31.471Z,51.90
2022-11-18T12:43:31.397Z,39.20
2022-11-18T12:44:31.375Z,39.80
2022-11-18T12:45:31.294Z,39.10
2022-11-18T12:46:31.243Z,44.90
2022-11-18T12:47:31.177Z,57.80
2022-11-18T12:48:31.156Z,46.20
2022-11-18T12:49:31.089Z,42.80
2022-11-18T12:50:31.031Z,45.80
2022-11-18T12:51:30.919Z,41.00
2022-11-18T12:52:30.822Z,36.60